createdAt,value
2018-05-16T00:10:56.283Z,12.29
2018-05-16T00:11:56.242Z,12.27
2018-05-16T00:12:56.232Z,12.45
2018-05-16T00:13:56.213Z,12.38
2018-05-16T00:14:56.194Z,12.39
2018-05-16T00:15:56.223Z,12.46
2018-05-16T00:16:56.188Z,12.38
2018-05-16T00:17:56.209Z,12.44
2018-05-16T00:46:35.159Z,12.42
2018-05-16T00:47:35.168Z,12.44
2018-05-16T00:48:35.149Z,12.44
2018-05-16T00:49:35.130Z,12.44
2018-05-16T00:50:35.103Z,12.39
2018-05-16T00:51:35.101Z,12.39
2018-05-16T00:57:11.262Z,12.46
2018-05-16T00:58:11.225Z,12.41
2018-05-16T00:59:11.213Z,12.48
2018-05-16T01:00:11.193Z,12.41
2018-05-16T01:01:44.047Z,12.42
2018-05-16T01:49:52.064Z,12.26
2018-05-16T01:50:45.417Z,12.26
2018-05-16T01:51:45.399Z,12.30
2018-05-16T01:52:45.411Z,12.15
2018-05-16T01:53:45.401Z,12.26
2018-05-16T01:54:45.395Z,12.30
2018-05-16T01:55:45.359Z,12.16
2018-05-16T01:56:45.344Z,12.16
2018-05-16T01:57:45.322Z,12.20
2018-05-16T01:58:45.329Z,12.24
2018-05-16T01:59:45.324Z,12.20
2018-05-16T02:00:45.282Z,12.19
2018-05-16T02:09:25.552Z,12.20
2018-05-16T02:10:25.514Z,12.19
2018-05-16T02:11:25.502Z,12.19
2018-05-16T02:12:25.492Z,12.31
2018-05-16T02:13:25.473Z,12.20
2018-05-16T02:14:25.466Z,12.20
2018-05-16T02:15:25.434Z,12.15
2018-05-16T02:16:25.418Z,12.20
2018-05-16T02:17:25.437Z,12.21
2018-05-16T02:18:25.430Z,12.19
2018-05-16T03:23:51.838Z,12.26
2018-05-16T03:24:51.812Z,12.29
2018-05-16T03:25:51.793Z,12.29
2018-05-16T03:26:51.777Z,12.38
2018-05-16T03:27:51.758Z,12.30
2018-05-16T03:28:51.742Z,12.31
2018-05-16T03:29:51.726Z,12.27
2018-05-16T03:30:51.755Z,12.37
2018-05-16T03:31:51.736Z,12.24
2018-05-16T03:32:51.713Z,12.26
2018-05-16T03:33:51.697Z,12.26
2018-05-16T03:34:51.774Z,12.29
2018-05-16T03:35:51.653Z,12.27
2018-05-16T03:36:51.657Z,12.39
2018-05-16T03:37:51.643Z,12.31
2018-05-16T03:38:51.608Z,12.37
2018-05-16T03:39:51.595Z,12.31
2018-05-16T03:40:51.579Z,12.44
2018-05-16T03:41:51.601Z,12.41
2018-05-16T03:42:51.561Z,12.41
2018-05-16T03:43:51.522Z,12.44
2018-05-16T03:44:51.522Z,12.42
2018-05-16T03:45:51.530Z,12.52
2018-05-16T03:46:51.493Z,12.51
2018-05-16T03:47:51.484Z,12.52
2018-05-16T03:48:51.461Z,12.54
2018-05-16T03:49:51.436Z,12.56
2018-05-16T03:50:51.417Z,12.59
2018-05-16T03:51:51.429Z,12.62
2018-05-16T03:52:51.363Z,12.64
2018-05-16T03:53:51.344Z,12.67
2018-05-16T03:54:51.334Z,12.54
2018-05-16T03:55:51.315Z,12.69
2018-05-16T03:56:51.302Z,12.69
2018-05-16T03:57:51.290Z,12.60
2018-05-16T03:58:51.264Z,12.62
2018-05-16T03:59:51.261Z,12.63
2018-05-16T04:00:51.242Z,12.62
2018-05-16T04:01:51.225Z,12.67
2018-05-16T04:02:51.206Z,12.66
2018-05-16T04:03:51.186Z,12.67
2018-05-16T04:04:51.169Z,12.71
2018-05-16T04:05:51.160Z,12.63
2018-05-16T04:06:51.143Z,12.69
2018-05-16T04:07:51.125Z,12.69
2018-05-16T04:08:51.109Z,12.69
2018-05-16T04:09:51.093Z,12.75
2018-05-16T04:10:51.077Z,12.69
2018-05-16T04:11:51.064Z,12.75
2018-05-16T04:12:51.056Z,12.71
2018-05-16T04:13:51.030Z,12.77
2018-05-16T04:14:51.014Z,12.69
2018-05-16T04:15:51.007Z,12.67
2018-05-16T04:16:50.988Z,12.64
2018-05-16T04:17:50.970Z,12.77
2018-05-16T04:18:50.974Z,12.57
2018-05-16T04:19:50.934Z,12.64
2018-05-16T04:20:51.002Z,12.60
2018-05-16T04:21:50.912Z,12.66
2018-05-16T04:22:50.896Z,12.60
2018-05-16T04:23:50.873Z,12.66
2018-05-16T04:24:50.864Z,12.57
2018-05-16T04:25:50.848Z,12.60
2018-05-16T04:26:50.829Z,12.69
2018-05-16T04:27:50.809Z,12.67
2018-05-16T04:28:50.851Z,12.69
2018-05-16T04:29:50.787Z,12.81
2018-05-16T04:30:50.784Z,12.78
2018-05-16T04:31:50.748Z,12.88
2018-05-16T04:32:50.732Z,12.85
2018-05-16T04:33:50.716Z,12.81
2018-05-16T04:34:50.706Z,12.82
2018-05-16T04:35:50.690Z,12.78
2018-05-16T04:36:50.671Z,12.77
2018-05-16T04:37:50.661Z,12.74
2018-05-16T04:38:50.642Z,12.74
2018-05-16T04:39:50.630Z,12.74
2018-05-16T04:40:50.613Z,12.79
2018-05-16T04:41:50.606Z,12.82
2018-05-16T04:42:50.659Z,12.82
2018-05-16T04:43:50.568Z,12.81
2018-05-16T04:44:50.545Z,12.77
2018-05-16T04:45:50.529Z,12.81
2018-05-16T04:46:50.516Z,12.79
2018-05-16T04:47:50.506Z,12.79
2018-05-16T04:48:50.490Z,12.82
2018-05-16T04:49:50.471Z,12.85
2018-05-16T04:50:50.452Z,12.84
2018-05-16T04:51:50.436Z,12.82
2018-05-16T04:52:50.475Z,12.85
2018-05-16T04:53:50.411Z,12.88
2018-05-16T04:54:50.391Z,12.82
2018-05-16T04:55:50.385Z,12.81
2018-05-16T04:56:50.365Z,12.95
2018-05-16T04:57:50.349Z,12.88
2018-05-16T04:58:50.327Z,12.82
2018-05-16T04:59:50.314Z,12.81
2018-05-16T05:00:50.305Z,12.77
2018-05-16T05:01:50.285Z,12.79
2018-05-16T05:02:50.269Z,12.84
2018-05-16T05:03:50.257Z,12.87
2018-05-16T05:04:50.241Z,12.84
2018-05-16T05:05:50.218Z,12.84
2018-05-16T05:06:50.212Z,12.85
2018-05-16T05:07:50.196Z,12.85
2018-05-16T05:08:50.274Z,12.81
2018-05-16T05:09:50.182Z,12.85
2018-05-16T05:10:50.163Z,12.85
2018-05-16T05:11:50.226Z,12.77
2018-05-16T05:12:50.116Z,12.85
2018-05-16T05:13:50.102Z,12.81
2018-05-16T05:14:50.077Z,12.85
2018-05-16T05:15:50.074Z,12.79
2018-05-16T05:16:50.052Z,12.81
2018-05-16T05:17:50.031Z,12.74
2018-05-16T05:18:50.082Z,12.75
2018-05-16T05:19:50.014Z,12.85
2018-05-16T05:20:49.991Z,12.82
2018-05-16T05:21:49.974Z,12.81
2018-05-16T05:22:49.970Z,12.82
2018-05-16T05:23:49.939Z,12.71
2018-05-16T05:24:49.920Z,12.79
2018-05-16T05:25:49.906Z,12.78
2018-05-16T05:26:49.907Z,12.77
2018-05-16T05:27:49.881Z,12.84
2018-05-16T05:28:49.881Z,12.82
2018-05-16T05:29:49.846Z,12.85
2018-05-16T05:30:49.830Z,12.85
2018-05-16T05:31:49.814Z,12.99
2018-05-16T05:32:49.857Z,13.00
2018-05-16T05:33:49.781Z,12.95
2018-05-16T05:34:49.765Z,13.00
2018-05-16T05:35:49.758Z,12.93
2018-05-16T05:36:49.768Z,12.89
2018-05-16T05:37:49.720Z,12.92
2018-05-16T05:38:49.704Z,13.03
2018-05-16T05:39:49.688Z,12.99
2018-05-16T05:40:49.672Z,13.02
2018-05-16T05:41:49.663Z,13.03
2018-05-16T05:42:49.653Z,13.02
2018-05-16T05:43:49.627Z,13.02
2018-05-16T05:44:49.613Z,12.97
2018-05-16T05:45:49.598Z,13.00
2018-05-16T05:46:49.588Z,13.04
2018-05-16T05:47:49.573Z,13.07
2018-05-16T05:48:49.550Z,13.06
2018-05-16T05:49:49.541Z,13.02
2018-05-16T05:50:49.521Z,13.03
2018-05-16T05:51:49.512Z,13.04
2018-05-16T05:52:49.496Z,13.03
2018-05-16T05:53:49.473Z,13.04
2018-05-16T05:54:49.463Z,13.00
2018-05-16T05:55:49.448Z,12.97
2018-05-16T05:56:49.435Z,13.06
2018-05-16T05:57:49.413Z,12.99
2018-05-16T05:58:49.407Z,13.07
2018-05-16T05:59:49.384Z,12.96
2018-05-16T06:00:49.376Z,13.00
2018-05-16T06:01:49.356Z,13.03
2018-05-16T06:02:49.343Z,12.96
2018-05-16T06:03:49.329Z,12.99
2018-05-16T06:04:49.310Z,13.06
2018-05-16T06:05:49.297Z,12.97
2018-05-16T06:06:49.303Z,12.99
2018-05-16T06:07:49.269Z,12.95
2018-05-16T06:08:49.246Z,12.93
2018-05-16T06:09:49.237Z,13.02
2018-05-16T06:10:49.221Z,12.97
2018-05-16T06:11:49.202Z,12.93
2018-05-16T06:12:49.222Z,12.92
2018-05-16T06:13:49.174Z,12.85
2018-05-16T06:14:49.162Z,12.96
2018-05-16T06:15:49.140Z,12.97
2018-05-16T06:16:49.123Z,12.88
2018-05-16T06:17:49.107Z,12.95
2018-05-16T06:18:49.094Z,12.96
2018-05-16T06:19:49.084Z,12.93
2018-05-16T06:20:49.062Z,12.96
2018-05-16T06:21:49.052Z,13.09
2018-05-16T06:22:49.034Z,13.02
2018-05-16T06:23:49.053Z,13.12
2018-05-16T06:24:49.001Z,13.06
2018-05-16T06:25:48.988Z,13.15
2018-05-16T06:26:48.973Z,13.12
2018-05-16T06:27:48.967Z,13.21
2018-05-16T06:28:48.954Z,13.15
2018-05-16T06:29:48.925Z,13.18
2018-05-16T06:30:48.909Z,13.17
2018-05-16T06:31:48.896Z,13.17
2018-05-16T06:32:48.962Z,13.22
2018-05-16T06:33:48.892Z,13.32
2018-05-16T06:34:48.851Z,13.32
2018-05-16T06:35:48.835Z,13.43
2018-05-16T06:36:48.819Z,13.41
2018-05-16T06:37:48.819Z,13.49
2018-05-16T06:38:48.788Z,13.56
2018-05-16T06:39:48.787Z,13.58
2018-05-16T06:40:48.764Z,13.58
2018-05-16T06:41:48.761Z,13.73
2018-05-16T06:42:48.729Z,13.87
2018-05-16T06:43:48.717Z,13.94
2018-05-16T06:44:48.722Z,13.95
2018-05-16T06:45:48.724Z,13.92
2018-05-16T06:46:48.685Z,13.98
2018-05-16T06:47:48.661Z,14.07
2018-05-16T06:48:48.645Z,14.02
2018-05-16T06:49:48.629Z,14.12
2018-05-16T06:50:48.616Z,14.19
2018-05-16T06:51:48.601Z,14.35
2018-05-16T06:52:48.594Z,14.44
2018-05-16T06:53:48.573Z,14.44
2018-05-16T06:54:48.560Z,14.54
2018-05-16T06:55:48.543Z,14.69
2018-05-16T06:56:48.531Z,14.57
2018-05-16T06:57:48.525Z,14.47
2018-05-16T06:58:48.509Z,14.56
2018-05-16T06:59:48.489Z,14.69
2018-05-16T07:00:48.477Z,14.67
2018-05-16T07:01:48.480Z,14.62
2018-05-16T07:02:48.460Z,14.61
2018-05-16T07:03:48.439Z,14.62
2018-05-16T07:04:48.432Z,14.57
2018-05-16T07:05:48.417Z,14.61
2018-05-16T07:06:48.403Z,14.47
2018-05-16T07:07:48.394Z,14.38
2018-05-16T07:08:48.373Z,14.61
2018-05-16T07:09:48.364Z,14.56
2018-05-16T07:10:48.345Z,14.67
2018-05-16T07:11:48.332Z,14.91
2018-05-16T07:12:48.322Z,15.05
2018-05-16T07:13:48.310Z,15.02
2018-05-16T07:14:48.300Z,15.02
2018-05-16T07:15:48.287Z,14.93
2018-05-16T07:16:48.271Z,15.11
2018-05-16T07:17:48.258Z,15.15
2018-05-16T07:18:48.245Z,15.06
2018-05-16T07:19:48.242Z,15.12
2018-05-16T07:20:48.223Z,15.19
2018-05-16T07:21:48.210Z,15.20
2018-05-16T07:22:48.236Z,15.28
2018-05-16T07:23:48.188Z,15.35
2018-05-16T07:24:48.175Z,15.35
2018-05-16T07:25:48.167Z,15.12
2018-05-16T07:26:48.145Z,15.23
2018-05-16T07:27:48.152Z,15.27
2018-05-16T07:28:48.123Z,15.35
2018-05-16T07:29:48.114Z,15.51
2018-05-16T07:30:48.111Z,15.63
2018-05-16T07:31:48.089Z,15.61
2018-05-16T07:32:48.082Z,15.89
2018-05-16T07:33:48.065Z,16.03
2018-05-16T07:34:48.052Z,16.22
2018-05-16T07:35:48.053Z,16.01
2018-05-16T07:36:48.067Z,15.96
2018-05-16T07:37:48.017Z,15.96
2018-05-16T07:38:48.014Z,15.94
2018-05-16T07:39:47.998Z,15.84
2018-05-16T07:40:47.991Z,15.72
2018-05-16T07:41:47.975Z,15.74
2018-05-16T07:42:47.963Z,15.57
2018-05-16T07:43:47.960Z,15.56
2018-05-16T07:44:47.940Z,15.60
2018-05-16T07:45:47.934Z,15.45
2018-05-16T07:46:47.918Z,15.63
2018-05-16T07:47:47.905Z,15.66
2018-05-16T07:48:47.895Z,15.88
2018-05-16T07:49:47.889Z,16.55
2018-05-16T07:50:47.881Z,17.73
2018-05-16T07:51:47.867Z,18.02
2018-05-16T07:52:47.860Z,18.28
2018-05-16T07:53:47.838Z,17.88
2018-05-16T07:54:47.829Z,17.43
2018-05-16T07:55:47.822Z,16.96
2018-05-16T07:56:47.806Z,16.88
2018-05-16T07:57:47.793Z,16.78
2018-05-16T07:58:47.786Z,16.83
2018-05-16T07:59:47.776Z,16.81
2018-05-16T08:00:47.771Z,16.81
2018-05-16T08:01:47.757Z,16.67
2018-05-16T08:02:47.748Z,16.52
2018-05-16T08:03:47.739Z,16.40
2018-05-16T08:04:47.729Z,16.30
2018-05-16T08:05:47.713Z,16.33
2018-05-16T08:06:47.700Z,16.33
2018-05-16T08:07:47.697Z,16.38
2018-05-16T08:08:47.687Z,16.16
2018-05-16T08:09:47.671Z,16.34
2018-05-16T08:10:47.665Z,16.25
2018-05-16T08:11:47.650Z,16.25
2018-05-16T08:12:47.636Z,16.12
2018-05-16T08:13:47.632Z,15.86
2018-05-16T08:14:47.623Z,15.79
2018-05-16T08:15:47.612Z,15.49
2018-05-16T08:16:47.604Z,15.28
2018-05-16T08:17:47.585Z,15.28
2018-05-16T08:18:47.578Z,15.27
2018-05-16T08:19:47.571Z,15.30
2018-05-16T08:20:47.554Z,15.13
2018-05-16T08:21:47.591Z,15.05
2018-05-16T08:22:47.530Z,14.93
2018-05-16T08:23:47.520Z,14.84
2018-05-16T08:24:47.507Z,14.87
2018-05-16T08:25:47.504Z,14.80
2018-05-16T08:26:47.482Z,14.83
2018-05-16T08:27:47.478Z,14.81
2018-05-16T08:28:47.463Z,14.74
2018-05-16T08:29:47.453Z,14.71
2018-05-16T08:30:47.437Z,14.68
2018-05-16T08:31:47.424Z,14.75
2018-05-16T08:32:47.415Z,14.67
2018-05-16T08:33:47.392Z,14.87
2018-05-16T08:34:47.396Z,14.84
2018-05-16T08:35:47.372Z,14.87
2018-05-16T08:36:47.375Z,14.91
2018-05-16T08:37:47.349Z,15.11
2018-05-16T08:38:47.333Z,15.15
2018-05-16T08:39:47.321Z,15.06
2018-05-16T08:40:47.311Z,15.02
2018-05-16T08:41:47.301Z,14.99
2018-05-16T08:42:47.288Z,14.99
2018-05-16T08:43:47.273Z,15.08
2018-05-16T08:44:47.263Z,15.13
2018-05-16T08:45:47.250Z,15.15
2018-05-16T08:46:47.234Z,15.17
2018-05-16T08:47:47.222Z,15.31
2018-05-16T08:48:47.219Z,15.48
2018-05-16T08:49:47.952Z,15.48
2018-05-16T08:50:47.190Z,15.52
2018-05-16T08:51:47.171Z,15.64
2018-05-16T08:52:47.161Z,15.70
2018-05-16T08:53:47.152Z,15.78
2018-05-16T08:54:47.132Z,15.68
2018-05-16T08:55:47.123Z,15.78
2018-05-16T08:56:47.110Z,15.81
2018-05-16T08:57:47.102Z,16.01
2018-05-16T08:58:47.088Z,16.15
2018-05-16T08:59:47.085Z,16.16
2018-05-16T09:00:47.062Z,16.09
2018-05-16T09:01:47.052Z,16.14
2018-05-16T09:02:47.036Z,16.20
2018-05-16T09:03:47.044Z,16.14
2018-05-16T09:04:47.014Z,16.14
2018-05-16T09:05:47.001Z,16.22
2018-05-16T09:06:46.995Z,16.25
2018-05-16T09:07:46.976Z,16.25
2018-05-16T09:08:46.966Z,16.38
2018-05-16T09:09:46.953Z,16.25
2018-05-16T09:10:46.947Z,16.25
2018-05-16T09:11:46.947Z,16.38
2018-05-16T09:12:46.924Z,16.30
2018-05-16T09:13:46.915Z,16.37
2018-05-16T09:14:46.902Z,16.31
2018-05-16T09:15:46.892Z,16.44
2018-05-16T09:16:46.877Z,16.34
2018-05-16T09:17:46.873Z,16.35
2018-05-16T09:18:46.861Z,16.35
2018-05-16T09:19:46.851Z,16.25
2018-05-16T09:20:46.842Z,16.11
2018-05-16T09:21:46.823Z,16.07
2018-05-16T09:22:46.816Z,15.94
2018-05-16T09:23:46.806Z,15.92
2018-05-16T09:24:46.796Z,15.79
2018-05-16T09:25:46.784Z,15.82
2018-05-16T09:26:46.771Z,15.79
2018-05-16T09:27:46.755Z,15.76
2018-05-16T09:28:46.748Z,15.88
2018-05-16T09:29:46.733Z,16.03
2018-05-16T09:30:46.727Z,16.09
2018-05-16T09:31:46.715Z,16.16
2018-05-16T09:32:46.701Z,16.16
2018-05-16T09:33:46.753Z,16.18
2018-05-16T09:34:46.682Z,16.18
2018-05-16T09:35:46.666Z,16.03
2018-05-16T09:36:46.666Z,15.94
2018-05-16T09:37:46.644Z,15.88
2018-05-16T09:38:46.638Z,15.88
2018-05-16T09:39:46.628Z,16.01
2018-05-16T09:40:46.609Z,15.99
2018-05-16T09:41:46.602Z,16.01
2018-05-16T09:42:46.587Z,15.93
2018-05-16T09:43:46.581Z,15.99
2018-05-16T09:44:46.562Z,15.92
2018-05-16T09:45:46.632Z,15.88
2018-05-16T09:46:46.539Z,16.12
2018-05-16T09:47:46.533Z,16.04
2018-05-16T09:48:46.529Z,16.00
2018-05-16T09:49:46.540Z,15.92
2018-05-16T09:50:46.494Z,16.18
2018-05-16T09:51:46.491Z,16.22
2018-05-16T09:52:46.472Z,16.35
2018-05-16T09:53:46.459Z,16.53
2018-05-16T09:54:46.450Z,16.59
2018-05-16T09:55:46.433Z,16.73
2018-05-16T09:56:46.432Z,16.88
2018-05-16T09:57:46.415Z,16.85
2018-05-16T09:58:46.408Z,17.03
2018-05-16T09:59:46.395Z,17.03
2018-05-16T10:00:46.381Z,17.17
2018-05-16T10:01:46.368Z,17.26
2018-05-16T10:02:46.361Z,17.28
2018-05-16T10:03:46.356Z,17.29
2018-05-16T10:04:46.336Z,17.15
2018-05-16T10:05:46.327Z,17.14
2018-05-16T10:06:46.324Z,17.20
2018-05-16T10:07:46.315Z,17.20
2018-05-16T10:08:46.302Z,17.41
2018-05-16T10:09:46.404Z,17.43
2018-05-16T10:10:46.279Z,17.54
2018-05-16T10:11:46.274Z,17.62
2018-05-16T10:12:46.261Z,17.81
2018-05-16T10:13:46.245Z,18.09
2018-05-16T10:14:46.234Z,17.84
2018-05-16T10:15:46.228Z,17.70
2018-05-16T10:16:46.218Z,17.81
2018-05-16T10:17:46.212Z,18.06
2018-05-16T10:18:46.202Z,18.03
2018-05-16T10:19:46.192Z,18.00
2018-05-16T10:20:46.184Z,18.10
2018-05-16T10:21:46.171Z,18.22
2018-05-16T10:22:46.158Z,18.22
2018-05-16T10:23:46.225Z,18.19
2018-05-16T10:24:46.142Z,18.29
2018-05-16T10:25:46.130Z,18.33
2018-05-16T10:26:46.133Z,18.39
2018-05-16T10:27:46.117Z,18.67
2018-05-16T10:28:46.111Z,18.84
2018-05-16T10:29:46.100Z,18.84
2018-05-16T10:30:46.092Z,19.18
2018-05-16T10:31:46.080Z,19.46
2018-05-16T10:32:46.069Z,19.76
2018-05-16T10:33:46.066Z,20.09
2018-05-16T10:34:46.057Z,20.15
2018-05-16T10:35:46.053Z,20.28
2018-05-16T10:36:46.047Z,20.53
2018-05-16T10:37:46.034Z,20.42
2018-05-16T10:38:46.028Z,20.58
2018-05-16T10:39:46.028Z,20.56
2018-05-16T10:40:46.012Z,20.30
2018-05-16T10:41:46.009Z,20.00
2018-05-16T10:42:46.002Z,20.46
2018-05-16T10:43:45.998Z,20.66
2018-05-16T10:44:45.999Z,20.25
2018-05-16T10:45:45.982Z,20.20
2018-05-16T10:46:45.985Z,20.31
2018-05-16T10:47:45.982Z,20.28
2018-05-16T10:48:45.972Z,20.05
2018-05-16T10:49:45.963Z,19.98
2018-05-16T10:50:45.963Z,19.86
2018-05-16T10:51:45.960Z,19.29
2018-05-16T10:52:45.947Z,19.20
2018-05-16T10:53:45.949Z,19.18
2018-05-16T10:54:45.944Z,19.31
2018-05-16T10:55:45.931Z,19.46
2018-05-16T10:56:45.934Z,19.68
2018-05-16T10:57:45.928Z,19.65
2018-05-16T10:58:45.928Z,19.87
2018-05-16T10:59:45.909Z,20.56
2018-05-16T11:00:45.908Z,21.08
2018-05-16T11:01:45.899Z,21.05
2018-05-16T11:02:45.892Z,20.56
2018-05-16T11:03:45.889Z,20.24
2018-05-16T11:04:45.883Z,20.12
2018-05-16T11:05:45.880Z,19.90
2018-05-16T11:06:45.873Z,19.39
2018-05-16T11:07:45.871Z,18.95
2018-05-16T11:08:45.870Z,18.84
2018-05-16T11:09:45.860Z,18.82
2018-05-16T11:10:45.870Z,18.87
2018-05-16T11:11:45.849Z,19.55
2018-05-16T11:12:45.842Z,20.05
2018-05-16T11:13:45.844Z,20.21
2018-05-16T11:14:45.834Z,20.30
2018-05-16T11:15:45.829Z,20.69
2018-05-16T11:16:45.823Z,20.46
2018-05-16T11:17:45.822Z,20.10
2018-05-16T11:18:45.819Z,20.00
2018-05-16T11:19:45.815Z,19.88
2018-05-16T11:20:45.813Z,20.13
2018-05-16T11:21:45.810Z,20.28
2018-05-16T11:22:45.800Z,20.33
2018-05-16T11:23:45.794Z,20.80
2018-05-16T11:24:45.791Z,20.93
2018-05-16T11:25:45.796Z,21.39
2018-05-16T11:26:45.783Z,22.04
2018-05-16T11:27:45.791Z,22.47
2018-05-16T11:28:45.779Z,22.46
2018-05-16T11:29:45.773Z,22.37
2018-05-16T11:30:45.781Z,22.80
2018-05-16T11:31:45.779Z,22.97
2018-05-16T11:32:45.773Z,22.99
2018-05-16T11:33:45.773Z,23.39
2018-05-16T11:34:45.769Z,23.45
2018-05-16T11:35:45.770Z,23.57
2018-05-16T11:36:45.763Z,23.02
2018-05-16T11:37:45.774Z,23.04
2018-05-16T11:38:45.763Z,23.34
2018-05-16T11:39:45.766Z,23.05
2018-05-16T11:40:45.763Z,23.32
2018-05-16T11:41:45.763Z,23.01
2018-05-16T11:42:45.768Z,22.77
2018-05-16T11:43:45.770Z,22.62
2018-05-16T11:44:45.766Z,22.19
2018-05-16T11:45:45.766Z,21.90
2018-05-16T11:46:45.770Z,21.60
2018-05-16T11:47:45.769Z,20.86
2018-05-16T11:48:45.792Z,20.27
2018-05-16T11:49:45.766Z,20.27
2018-05-16T11:50:45.763Z,20.34
2018-05-16T11:51:45.764Z,20.30
2018-05-16T11:52:45.767Z,20.27
2018-05-16T11:53:45.763Z,20.24
2018-05-16T11:54:45.756Z,20.30
2018-05-16T11:55:45.753Z,20.28
2018-05-16T11:56:45.750Z,20.31
2018-05-16T11:57:45.747Z,20.54
2018-05-16T11:58:45.747Z,20.69
2018-05-16T11:59:45.738Z,20.84
2018-05-16T12:00:45.731Z,20.76
2018-05-16T12:01:45.728Z,20.59
2018-05-16T12:02:45.799Z,20.27
2018-05-16T12:03:45.725Z,20.33
2018-05-16T12:04:45.713Z,20.41
2018-05-16T12:05:45.709Z,20.23
2018-05-16T12:06:45.702Z,20.18
2018-05-16T12:07:45.699Z,20.24
2018-05-16T12:08:45.693Z,20.02
2018-05-16T12:09:45.696Z,19.90
2018-05-16T12:10:45.684Z,19.78
2018-05-16T12:11:45.677Z,19.70
2018-05-16T12:12:45.671Z,19.72
2018-05-16T12:13:45.664Z,19.65
2018-05-16T12:14:45.681Z,19.72
2018-05-16T12:15:45.654Z,19.78
2018-05-16T12:16:45.648Z,19.65
2018-05-16T12:17:45.648Z,19.68
2018-05-16T12:18:45.639Z,19.80
2018-05-16T12:19:45.629Z,19.78
2018-05-16T12:20:45.622Z,19.95
2018-05-16T12:21:45.689Z,19.90
2018-05-16T12:22:45.613Z,20.05
2018-05-16T12:23:45.600Z,20.06
2018-05-16T12:24:45.600Z,20.31
2018-05-16T12:25:45.593Z,20.38
2018-05-16T12:26:45.580Z,20.54
2018-05-16T12:27:45.570Z,20.71
2018-05-16T12:28:45.567Z,20.72
2018-05-16T12:29:45.561Z,20.68
2018-05-16T12:30:45.552Z,20.99
2018-05-16T12:31:45.549Z,21.41
2018-05-16T12:32:45.539Z,21.63
2018-05-16T12:33:45.540Z,21.54
2018-05-16T12:34:45.533Z,21.76
2018-05-16T12:35:45.530Z,22.62
2018-05-16T12:36:45.517Z,23.58
2018-05-16T12:37:45.516Z,24.35
2018-05-16T12:38:45.508Z,24.34
2018-05-16T12:39:45.511Z,24.98
2018-05-16T12:40:45.500Z,24.24
2018-05-16T12:41:45.497Z,23.83
2018-05-16T12:42:45.498Z,24.50
2018-05-16T12:43:45.498Z,24.76
2018-05-16T12:44:45.494Z,24.24
2018-05-16T12:45:45.491Z,23.80
2018-05-16T12:46:45.500Z,23.49
2018-05-16T12:47:45.497Z,22.75
2018-05-16T12:48:45.488Z,22.27
2018-05-16T12:49:45.495Z,22.01
2018-05-16T12:50:45.491Z,21.94
2018-05-16T12:51:45.482Z,21.78
2018-05-16T12:52:45.482Z,21.67
2018-05-16T12:53:45.478Z,21.29
2018-05-16T12:54:45.476Z,21.24
2018-05-16T12:55:45.548Z,21.11
2018-05-16T12:56:45.475Z,21.24
2018-05-16T12:57:45.468Z,21.27
2018-05-16T12:58:45.463Z,21.35
2018-05-16T12:59:45.459Z,21.30
2018-05-16T13:00:45.459Z,21.24
2018-05-16T13:01:45.454Z,21.38
2018-05-16T13:02:45.453Z,21.41
2018-05-16T13:03:45.440Z,21.53
2018-05-16T13:04:45.443Z,21.79
2018-05-16T13:05:45.432Z,22.54
2018-05-16T13:06:45.428Z,22.20
2018-05-16T13:07:45.431Z,22.77
2018-05-16T13:08:45.424Z,23.34
2018-05-16T13:09:45.425Z,23.31
2018-05-16T13:10:45.417Z,23.12
2018-05-16T13:11:45.409Z,22.77
2018-05-16T13:12:45.408Z,22.38
2018-05-16T13:13:45.408Z,22.12
2018-05-16T13:14:45.402Z,22.10
2018-05-16T13:15:45.396Z,21.95
2018-05-16T13:16:45.389Z,21.79
2018-05-16T13:17:45.467Z,21.88
2018-05-16T13:18:45.385Z,22.13
2018-05-16T13:19:45.384Z,22.60
2018-05-16T13:20:45.372Z,22.80
2018-05-16T13:21:45.376Z,23.05
2018-05-16T13:22:45.367Z,23.01
2018-05-16T13:23:45.369Z,23.05
2018-05-16T13:24:45.356Z,23.08
2018-05-16T13:25:45.353Z,23.58
2018-05-16T13:26:45.426Z,24.50
2018-05-16T13:27:45.353Z,25.09
2018-05-16T13:28:45.343Z,25.82
2018-05-16T13:29:45.350Z,25.59
2018-05-16T13:30:45.341Z,25.67
2018-05-16T13:31:45.348Z,25.86
2018-05-16T13:32:45.338Z,26.09
2018-05-16T13:33:45.341Z,26.36
2018-05-16T13:34:45.337Z,26.79
2018-05-16T13:35:45.341Z,27.20
2018-05-16T13:36:45.354Z,27.62
2018-05-16T13:37:45.341Z,27.79
2018-05-16T13:38:45.344Z,27.54
2018-05-16T13:39:45.344Z,26.92
2018-05-16T13:40:45.358Z,26.55
2018-05-16T13:41:45.356Z,26.35
2018-05-16T13:42:45.360Z,26.42
2018-05-16T13:43:45.357Z,25.87
2018-05-16T13:44:45.363Z,25.59
2018-05-16T13:45:45.366Z,26.29
2018-05-16T13:46:45.360Z,26.74
2018-05-16T13:47:45.366Z,27.14
2018-05-16T13:48:45.366Z,26.69
2018-05-16T13:49:45.370Z,26.89
2018-05-16T13:50:45.373Z,27.21
2018-05-16T13:51:45.385Z,27.74
2018-05-16T13:52:45.388Z,28.03
2018-05-16T13:53:45.382Z,27.46
2018-05-16T13:54:45.385Z,26.81
2018-05-16T13:55:45.398Z,25.94
2018-05-16T13:56:45.398Z,25.46
2018-05-16T13:57:45.400Z,25.64
2018-05-16T13:58:45.409Z,26.29
2018-05-16T13:59:45.405Z,26.77
2018-05-16T14:00:45.408Z,26.67
2018-05-16T14:01:45.414Z,26.11
2018-05-16T14:02:45.414Z,25.87
2018-05-16T14:03:45.421Z,25.50
2018-05-16T14:04:45.421Z,24.95
2018-05-16T14:05:45.430Z,24.69
2018-05-16T14:06:45.427Z,24.63
2018-05-16T14:07:45.430Z,24.35
2018-05-16T14:08:45.436Z,24.04
2018-05-16T14:09:45.436Z,23.60
2018-05-16T14:10:45.495Z,23.58
2018-05-16T14:11:45.441Z,23.43
2018-05-16T14:12:45.445Z,23.29
2018-05-16T14:13:45.434Z,22.96
2018-05-16T14:14:45.437Z,22.62
2018-05-16T14:15:45.430Z,22.60
2018-05-16T14:16:45.434Z,22.50
2018-05-16T14:17:45.427Z,22.32
2018-05-16T14:18:45.430Z,22.09
2018-05-16T14:19:45.427Z,22.41
2018-05-16T14:20:45.427Z,22.34
2018-05-16T14:21:45.427Z,22.04
2018-05-16T14:22:45.418Z,21.76
2018-05-16T14:23:45.509Z,21.46
2018-05-16T14:24:45.411Z,21.30
2018-05-16T14:25:45.411Z,21.29
2018-05-16T14:26:45.408Z,21.21
2018-05-16T14:27:45.408Z,21.04
2018-05-16T14:28:45.401Z,20.93
2018-05-16T14:29:45.395Z,20.89
2018-05-16T14:30:45.392Z,20.86
2018-05-16T14:31:45.392Z,20.64
2018-05-16T14:32:45.389Z,20.56
2018-05-16T14:33:45.382Z,20.71
2018-05-16T14:34:45.376Z,20.98
2018-05-16T14:35:45.375Z,21.66
2018-05-16T14:36:45.360Z,22.92
2018-05-16T14:37:45.359Z,23.82
2018-05-16T14:38:45.353Z,24.85
2018-05-16T14:39:45.350Z,25.44
2018-05-16T14:40:45.340Z,25.97
2018-05-16T14:41:45.337Z,26.27
2018-05-16T14:42:45.439Z,26.57
2018-05-16T14:43:45.331Z,26.76
2018-05-16T14:44:45.344Z,26.86
2018-05-16T14:45:45.328Z,26.29
2018-05-16T14:46:45.328Z,25.10
2018-05-16T14:47:45.328Z,24.29
2018-05-16T14:48:45.322Z,23.07
2018-05-16T14:49:45.321Z,22.44
2018-05-16T14:50:45.321Z,22.12
2018-05-16T14:51:45.318Z,21.92
2018-05-16T14:52:45.314Z,21.72
2018-05-16T14:53:45.310Z,21.51
2018-05-16T14:54:45.306Z,21.24
2018-05-16T14:55:45.306Z,21.35
2018-05-16T14:56:45.303Z,21.17
2018-05-16T14:57:45.302Z,20.96
2018-05-16T14:58:45.296Z,20.87
2018-05-16T14:59:45.293Z,20.90
2018-05-16T15:00:45.296Z,20.72
2018-05-16T15:01:45.297Z,20.77
2018-05-16T15:02:45.283Z,20.80
2018-05-16T15:03:45.277Z,20.89
2018-05-16T15:04:45.274Z,20.96
2018-05-16T15:05:45.267Z,21.01
2018-05-16T15:06:45.256Z,20.87
2018-05-16T15:07:45.254Z,20.98
2018-05-16T15:08:45.245Z,20.91
2018-05-16T15:09:45.242Z,20.95
2018-05-16T15:10:45.236Z,20.98
2018-05-16T15:11:45.229Z,21.05
2018-05-16T15:12:45.223Z,21.30
2018-05-16T15:13:45.223Z,21.35
2018-05-16T15:14:45.235Z,21.57
2018-05-16T15:15:45.200Z,21.57
2018-05-16T15:16:45.204Z,21.69
2018-05-16T15:17:45.197Z,21.61
2018-05-16T15:18:45.187Z,21.71
2018-05-16T15:19:45.188Z,21.63
2018-05-16T15:20:45.180Z,21.72
2018-05-16T15:21:45.174Z,21.92
2018-05-16T15:22:45.171Z,21.85
2018-05-16T15:23:45.155Z,21.81
2018-05-16T15:24:45.175Z,21.63
2018-05-16T15:25:45.151Z,21.46
2018-05-16T15:26:45.149Z,21.32
2018-05-16T15:27:45.142Z,21.21
2018-05-16T15:28:45.136Z,21.02
2018-05-16T15:29:45.126Z,21.08
2018-05-16T15:30:45.119Z,20.80
2018-05-16T15:31:45.113Z,20.58
2018-05-16T15:32:45.105Z,20.39
2018-05-16T15:33:45.097Z,20.31
2018-05-16T15:34:45.097Z,20.28